Little Egypt, Louisiana
Current Conditions -  °F | °C
As of 10:55 PM on Friday 28 Nov 2014 (Local Time) from KIER Reporting Station
Broken Clouds Broken Clouds  
Wind Chill: 55°   Ceiling: 1300
Heat Index: 55°   Visibility: 10mi
Dew Point: 53°   Wind: 7mph
Humidity: 93%   Direction: 170°S
Pressure: 30.15"   Gusts: NA
Location:  31.7926°N, 93.4001°W
Report Text: KIER 290455Z AUTO 17006KT 10SM BKN013 13/12 A3015 RMK AO2 T01260115
Loading
Personal Weather Stations






























Interactive Weather Map New forecast layout! Learn more

10-Day Weather Forecast

Advertisements
Track Severe Weather on mobile